createdAt,value
2023-03-07T00:00:44.386Z,100.00
2023-03-07T00:03:15.046Z,100.00
2023-03-07T00:05:41.897Z,100.00
2023-03-07T00:08:08.871Z,100.00
2023-03-07T00:10:35.457Z,100.00
2023-03-07T00:13:02.201Z,100.00
2023-03-07T00:15:28.642Z,100.00
2023-03-07T00:17:55.066Z,100.00
2023-03-07T00:20:21.510Z,100.00
2023-03-07T00:22:47.969Z,100.00
2023-03-07T00:25:15.113Z,100.00
2023-03-07T00:27:41.867Z,100.00
2023-03-07T00:30:10.226Z,100.00
2023-03-07T00:32:36.721Z,100.00
2023-03-07T00:35:03.299Z,100.00
2023-03-07T00:37:30.834Z,100.00
2023-03-07T00:39:57.427Z,100.00
2023-03-07T00:42:24.248Z,100.00
2023-03-07T00:44:50.751Z,100.00
2023-03-07T00:47:17.252Z,100.00
2023-03-07T00:49:43.739Z,100.00
2023-03-07T00:52:10.218Z,100.00
2023-03-07T00:54:36.854Z,100.00
2023-03-07T00:57:03.430Z,100.00
2023-03-07T00:59:29.894Z,100.00
2023-03-07T01:01:56.356Z,100.00
2023-03-07T01:04:23.077Z,100.00
2023-03-07T01:06:50.495Z,100.00
2023-03-07T01:09:16.942Z,100.00
2023-03-07T01:11:43.572Z,100.00
2023-03-07T01:14:10.314Z,100.00
2023-03-07T01:16:38.234Z,100.00
2023-03-07T01:19:07.575Z,100.00
2023-03-07T01:21:37.704Z,100.00
2023-03-07T01:24:08.403Z,100.00
2023-03-07T01:26:35.140Z,100.00
2023-03-07T01:29:03.454Z,100.00
2023-03-07T01:31:30.691Z,100.00
2023-03-07T01:33:57.268Z,100.00
2023-03-07T01:36:30.367Z,100.00
2023-03-07T01:39:00.985Z,100.00
2023-03-07T01:41:32.929Z,100.00
2023-03-07T01:44:00.449Z,100.00
2023-03-07T01:46:37.459Z,100.00
2023-03-07T01:49:21.500Z,100.00
2023-03-07T01:51:52.963Z,100.00
2023-03-07T01:54:20.420Z,100.00
2023-03-07T01:56:47.741Z,100.00
2023-03-07T01:59:18.067Z,100.00
2023-03-07T02:01:44.826Z,100.00
2023-03-07T02:04:18.901Z,100.00
2023-03-07T02:06:45.452Z,100.00
2023-03-07T02:09:16.107Z,100.00
2023-03-07T02:11:43.614Z,100.00
2023-03-07T02:14:10.829Z,100.00
2023-03-07T02:16:38.639Z,100.00
2023-03-07T02:19:14.960Z,100.00
2023-03-07T02:22:00.350Z,100.00
2023-03-07T02:24:35.889Z,100.00
2023-03-07T02:27:02.443Z,100.00
2023-03-07T02:29:28.978Z,100.00
2023-03-07T02:31:55.425Z,100.00
2023-03-07T02:34:24.967Z,100.00
2023-03-07T02:37:05.207Z,100.00
2023-03-07T02:39:31.985Z,100.00
2023-03-07T02:42:02.119Z,100.00
2023-03-07T02:44:28.638Z,100.00
2023-03-07T02:46:55.146Z,100.00
2023-03-07T02:49:21.682Z,100.00
2023-03-07T02:51:48.239Z,100.00
2023-03-07T02:54:14.790Z,100.00
2023-03-07T02:56:41.907Z,100.00
2023-03-07T02:59:08.788Z,100.00
2023-03-07T03:01:35.367Z,100.00
2023-03-07T03:04:01.830Z,100.00
2023-03-07T03:06:28.441Z,100.00
2023-03-07T03:08:54.957Z,100.00
2023-03-07T03:11:21.383Z,100.00
2023-03-07T03:13:47.974Z,100.00
2023-03-07T03:16:14.519Z,100.00
2023-03-07T03:18:41.069Z,100.00
2023-03-07T03:21:11.627Z,100.00
2023-03-07T03:23:38.310Z,100.00
2023-03-07T03:26:07.702Z,100.00
2023-03-07T03:28:35.266Z,100.00
2023-03-07T03:31:06.956Z,100.00
2023-03-07T03:33:33.549Z,100.00
2023-03-07T03:36:01.334Z,100.00
2023-03-07T03:38:28.007Z,100.00
2023-03-07T03:40:54.547Z,100.00
2023-03-07T03:43:21.123Z,100.00
2023-03-07T03:45:57.781Z,100.00
2023-03-07T03:48:24.806Z,100.00
2023-03-07T03:50:51.442Z,100.00
2023-03-07T03:53:17.944Z,100.00
2023-03-07T03:55:44.478Z,100.00
2023-03-07T03:58:11.197Z,100.00
2023-03-07T04:00:37.777Z,100.00
2023-03-07T04:03:04.822Z,100.00
2023-03-07T04:05:34.070Z,100.00
2023-03-07T04:08:01.005Z,100.00
2023-03-07T04:10:27.533Z,100.00
2023-03-07T04:12:54.039Z,100.00
2023-03-07T04:15:20.605Z,100.00
2023-03-07T04:17:47.079Z,100.00
2023-03-07T04:20:17.398Z,100.00
2023-03-07T04:22:44.225Z,100.00
2023-03-07T04:25:10.861Z,100.00
2023-03-07T04:27:37.361Z,100.00
2023-03-07T04:30:04.249Z,100.00
2023-03-07T04:32:30.795Z,100.00
2023-03-07T04:34:57.382Z,100.00
2023-03-07T04:37:23.956Z,100.00
2023-03-07T04:39:50.456Z,100.00
2023-03-07T04:42:16.999Z,100.00
2023-03-07T04:44:43.486Z,100.00
2023-03-07T04:47:10.021Z,100.00
2023-03-07T04:49:36.586Z,100.00
2023-03-07T04:52:03.378Z,100.00
2023-03-07T04:54:30.058Z,100.00
2023-03-07T04:56:56.564Z,100.00
2023-03-07T04:59:23.087Z,100.00
2023-03-07T05:01:49.539Z,100.00
2023-03-07T05:04:16.115Z,100.00
2023-03-07T05:06:42.624Z,100.00
2023-03-07T05:09:09.276Z,100.00
2023-03-07T05:11:35.854Z,100.00
2023-03-07T05:14:02.463Z,100.00
2023-03-07T05:16:29.035Z,100.00
2023-03-07T05:18:55.486Z,100.00
2023-03-07T05:21:21.939Z,100.00
2023-03-07T05:23:48.446Z,100.00
2023-03-07T05:26:15.051Z,100.00
2023-03-07T05:28:41.595Z,100.00
2023-03-07T05:31:08.191Z,100.00
2023-03-07T05:33:34.807Z,100.00
2023-03-07T05:36:02.108Z,100.00
2023-03-07T05:38:28.715Z,100.00
2023-03-07T05:40:55.212Z,100.00
2023-03-07T05:43:21.769Z,100.00
2023-03-07T05:45:48.296Z,100.00
2023-03-07T05:48:14.814Z,100.00
2023-03-07T05:50:42.591Z,100.00
2023-03-07T05:53:09.197Z,100.00
2023-03-07T05:55:35.707Z,100.00
2023-03-07T05:58:02.342Z,100.00
2023-03-07T06:00:28.951Z,100.00
2023-03-07T06:02:55.518Z,100.00
2023-03-07T06:05:23.272Z,100.00
2023-03-07T06:07:51.391Z,100.00
2023-03-07T06:10:18.069Z,100.00
2023-03-07T06:12:44.778Z,100.00
2023-03-07T06:15:11.502Z,100.00
2023-03-07T06:17:39.743Z,100.00
2023-03-07T06:20:07.742Z,100.00
2023-03-07T06:22:34.770Z,100.00
2023-03-07T06:25:01.300Z,100.00
2023-03-07T06:27:27.847Z,100.00
2023-03-07T06:29:54.335Z,100.00
2023-03-07T06:32:21.017Z,100.00
2023-03-07T06:34:47.589Z,100.00
2023-03-07T06:37:14.077Z,100.00
2023-03-07T06:39:40.652Z,100.00
2023-03-07T06:42:07.200Z,100.00
2023-03-07T06:44:33.792Z,100.00
2023-03-07T06:47:00.465Z,100.00
2023-03-07T06:49:26.978Z,100.00
2023-03-07T06:51:53.524Z,100.00
2023-03-07T06:54:20.123Z,100.00
2023-03-07T06:56:46.891Z,100.00
2023-03-07T06:59:13.563Z,100.00
2023-03-07T07:01:40.178Z,100.00
2023-03-07T07:04:06.755Z,100.00
2023-03-07T07:06:33.822Z,100.00
2023-03-07T07:09:00.386Z,100.00
2023-03-07T07:11:27.177Z,100.00
2023-03-07T07:13:53.977Z,100.00
2023-03-07T07:16:20.725Z,100.00
2023-03-07T07:18:47.439Z,100.00
2023-03-07T07:21:14.100Z,100.00
2023-03-07T07:23:41.419Z,100.00
2023-03-07T07:26:08.555Z,100.00
2023-03-07T07:28:35.057Z,100.00
2023-03-07T07:31:01.722Z,100.00
2023-03-07T07:33:28.138Z,100.00
2023-03-07T07:35:54.787Z,100.00
2023-03-07T07:38:21.318Z,100.00
2023-03-07T07:40:47.847Z,100.00
2023-03-07T07:43:15.949Z,100.00
2023-03-07T07:45:43.122Z,100.00
2023-03-07T07:48:09.836Z,100.00
2023-03-07T07:50:36.580Z,100.00
2023-03-07T07:53:03.164Z,100.00
2023-03-07T07:55:29.640Z,100.00
2023-03-07T07:57:56.191Z,100.00
2023-03-07T08:00:22.805Z,100.00
2023-03-07T08:02:52.472Z,100.00
2023-03-07T08:05:20.596Z,100.00
2023-03-07T08:07:47.371Z,100.00
2023-03-07T08:10:17.670Z,100.00
2023-03-07T08:12:45.109Z,100.00
2023-03-07T08:15:12.160Z,100.00
2023-03-07T08:17:38.699Z,100.00
2023-03-07T08:20:09.606Z,100.00
2023-03-07T08:22:39.670Z,100.00
2023-03-07T08:25:07.885Z,100.00
2023-03-07T08:27:34.776Z,100.00
2023-03-07T08:30:01.297Z,100.00
2023-03-07T08:32:28.477Z,100.00
2023-03-07T08:34:55.040Z,100.00
2023-03-07T08:37:21.633Z,100.00
2023-03-07T08:39:48.280Z,100.00
2023-03-07T08:42:14.871Z,100.00
2023-03-07T08:44:41.416Z,100.00
2023-03-07T08:47:08.595Z,100.00
2023-03-07T08:49:35.081Z,100.00
2023-03-07T08:52:01.557Z,100.00
2023-03-07T08:54:28.338Z,100.00
2023-03-07T08:56:54.984Z,100.00
2023-03-07T08:59:21.611Z,100.00
2023-03-07T09:01:48.156Z,100.00
2023-03-07T09:04:14.700Z,100.00
2023-03-07T09:06:41.279Z,100.00
2023-03-07T09:09:07.923Z,100.00
2023-03-07T09:11:34.443Z,100.00
2023-03-07T09:14:00.897Z,100.00
2023-03-07T09:16:27.531Z,100.00
2023-03-07T09:18:54.624Z,100.00
2023-03-07T09:21:21.215Z,100.00
2023-03-07T09:23:47.965Z,100.00
2023-03-07T09:26:14.775Z,100.00
2023-03-07T09:28:41.741Z,100.00
2023-03-07T09:31:13.031Z,100.00
2023-03-07T09:33:40.030Z,100.00
2023-03-07T09:36:07.961Z,100.00
2023-03-07T09:38:34.749Z,100.00
2023-03-07T09:41:33.611Z,100.00
2023-03-07T09:44:22.044Z,100.00
2023-03-07T09:47:10.600Z,100.00
2023-03-07T09:49:53.055Z,100.00
2023-03-07T09:52:30.656Z,100.00
2023-03-07T09:55:00.189Z,100.00
2023-03-07T09:57:31.478Z,100.00
2023-03-07T10:00:07.700Z,100.00
2023-03-07T10:03:00.599Z,100.00
2023-03-07T10:05:31.529Z,100.00
2023-03-07T10:07:58.654Z,100.00
2023-03-07T10:10:31.424Z,100.00
2023-03-07T10:13:15.542Z,100.00
2023-03-07T10:15:52.597Z,100.00
2023-03-07T10:18:53.382Z,100.00
2023-03-07T10:21:38.910Z,100.00
2023-03-07T10:24:20.229Z,100.00
2023-03-07T10:26:51.211Z,100.00
2023-03-07T10:29:20.041Z,100.00
2023-03-07T10:31:55.424Z,100.00
2023-03-07T10:34:32.516Z,100.00
2023-03-07T10:37:09.106Z,100.00
2023-03-07T10:39:52.376Z,100.00
2023-03-07T10:42:22.490Z,100.00
2023-03-07T10:44:53.772Z,100.00
2023-03-07T10:47:25.828Z,100.00
2023-03-07T10:50:00.538Z,100.00
2023-03-07T10:52:39.744Z,98.77
2023-03-07T10:55:37.752Z,99.05
2023-03-07T10:58:20.038Z,92.28
2023-03-07T11:01:01.625Z,93.71
2023-03-07T11:03:51.108Z,93.27
2023-03-07T11:06:50.462Z,92.22
2023-03-07T11:09:34.527Z,86.92
2023-03-07T11:12:10.301Z,87.40
2023-03-07T11:15:10.758Z,86.10
2023-03-07T11:17:45.570Z,85.13
2023-03-07T11:20:30.356Z,85.38
2023-03-07T11:23:30.832Z,85.54
2023-03-07T11:26:14.396Z,83.22
2023-03-07T11:28:41.438Z,82.85
2023-03-07T11:31:29.459Z,86.41
2023-03-07T11:34:14.728Z,86.25
2023-03-07T11:36:44.104Z,86.26
2023-03-07T11:39:24.742Z,86.37
2023-03-07T11:42:04.008Z,85.09
2023-03-07T11:44:36.103Z,85.46
2023-03-07T11:47:39.387Z,86.28
2023-03-07T11:50:26.887Z,83.70
2023-03-07T11:53:12.103Z,82.01
2023-03-07T11:55:48.857Z,81.34
2023-03-07T11:58:37.126Z,82.48
2023-03-07T12:01:13.127Z,83.27
2023-03-07T12:03:52.531Z,82.76
2023-03-07T12:07:10.956Z,83.07
2023-03-07T12:09:45.218Z,82.90
2023-03-07T12:12:47.308Z,81.19
2023-03-07T12:15:31.109Z,81.02
2023-03-07T12:18:28.127Z,78.72
2023-03-07T12:21:13.330Z,77.96
2023-03-07T12:23:44.684Z,79.46
2023-03-07T12:26:36.393Z,80.92
2023-03-07T12:29:26.552Z,79.86
2023-03-07T12:31:57.006Z,81.33
2023-03-07T12:34:43.306Z,81.69
2023-03-07T12:37:20.821Z,83.24
2023-03-07T12:40:01.637Z,85.38
2023-03-07T12:42:53.146Z,83.18
2023-03-07T12:45:27.451Z,82.52
2023-03-07T12:47:54.194Z,80.82
2023-03-07T12:50:44.956Z,82.15
2023-03-07T12:53:29.588Z,81.86
2023-03-07T12:56:11.499Z,82.73
2023-03-07T12:58:58.549Z,82.58
2023-03-07T13:01:32.751Z,81.88
2023-03-07T13:04:05.365Z,82.61
2023-03-07T13:06:32.961Z,84.19
2023-03-07T13:09:01.725Z,83.71
2023-03-07T13:11:34.397Z,84.33
2023-03-07T13:14:02.449Z,83.50
2023-03-07T13:16:43.968Z,83.48
2023-03-07T13:19:35.759Z,85.09
2023-03-07T13:22:04.222Z,85.28
2023-03-07T13:24:40.203Z,84.94
2023-03-07T13:27:27.891Z,84.09
2023-03-07T13:30:12.787Z,87.15
2023-03-07T13:32:48.672Z,86.72
2023-03-07T13:35:24.652Z,88.44
2023-03-07T13:38:03.621Z,88.84
2023-03-07T13:40:37.031Z,88.15
2023-03-07T13:43:05.713Z,89.15
2023-03-07T13:45:38.378Z,88.88
2023-03-07T13:48:12.870Z,86.78
2023-03-07T13:50:59.388Z,85.87
2023-03-07T13:53:31.453Z,87.31
2023-03-07T13:56:04.646Z,86.97
2023-03-07T13:58:37.864Z,87.16
2023-03-07T14:01:12.546Z,87.46
2023-03-07T14:03:42.659Z,87.60
2023-03-07T14:06:20.552Z,88.53
2023-03-07T14:08:48.068Z,88.28
2023-03-07T14:11:32.634Z,88.70
2023-03-07T14:14:17.169Z,88.11
2023-03-07T14:16:56.721Z,88.45
2023-03-07T14:19:42.325Z,89.10
2023-03-07T14:22:23.705Z,91.31
2023-03-07T14:25:14.925Z,91.41
2023-03-07T14:28:01.529Z,92.75
2023-03-07T14:30:30.707Z,92.66
2023-03-07T14:32:58.170Z,93.43
2023-03-07T14:35:43.049Z,94.17
2023-03-07T14:38:21.058Z,95.10
2023-03-07T14:40:53.578Z,93.50
2023-03-07T14:43:30.296Z,92.54
2023-03-07T14:46:38.218Z,92.76
2023-03-07T14:49:33.908Z,91.70
2023-03-07T14:52:03.166Z,92.27
2023-03-07T14:54:32.649Z,92.74
2023-03-07T14:57:00.628Z,92.72
2023-03-07T14:59:29.344Z,92.80
2023-03-07T15:01:57.129Z,93.22
2023-03-07T15:04:31.675Z,93.70
2023-03-07T15:07:01.221Z,92.95
2023-03-07T15:09:28.480Z,92.72
2023-03-07T15:12:00.981Z,92.69
2023-03-07T15:14:48.608Z,93.24
2023-03-07T15:17:21.160Z,92.48
2023-03-07T15:19:58.210Z,92.15
2023-03-07T15:22:28.954Z,93.63
2023-03-07T15:24:55.768Z,93.33
2023-03-07T15:27:27.133Z,93.08
2023-03-07T15:29:54.363Z,94.13
2023-03-07T15:32:33.211Z,94.40
2023-03-07T15:35:02.664Z,94.60
2023-03-07T15:37:32.942Z,95.07
2023-03-07T15:40:28.869Z,96.15
2023-03-07T15:43:04.852Z,96.80
2023-03-07T15:45:38.484Z,97.78
2023-03-07T15:48:31.333Z,98.13
2023-03-07T15:51:00.386Z,98.94
2023-03-07T15:53:40.516Z,100.00
2023-03-07T15:56:20.892Z,100.00
2023-03-07T15:58:47.624Z,100.00
2023-03-07T16:01:22.012Z,100.00
2023-03-07T16:04:06.458Z,100.00
2023-03-07T16:06:42.620Z,100.00
2023-03-07T16:09:14.396Z,100.00
2023-03-07T16:11:42.125Z,100.00
2023-03-07T16:14:22.035Z,100.00
2023-03-07T16:16:48.901Z,100.00
2023-03-07T16:19:15.461Z,100.00
2023-03-07T16:21:41.907Z,100.00
2023-03-07T16:24:08.548Z,100.00
2023-03-07T16:26:35.180Z,100.00
2023-03-07T16:29:02.081Z,100.00
2023-03-07T16:31:28.733Z,100.00
2023-03-07T16:33:57.692Z,100.00
2023-03-07T16:36:24.247Z,100.00
2023-03-07T16:38:50.800Z,100.00
2023-03-07T16:41:20.644Z,100.00
2023-03-07T16:43:54.504Z,100.00
2023-03-07T16:46:21.468Z,100.00
2023-03-07T16:48:48.034Z,100.00
2023-03-07T16:51:19.431Z,100.00
2023-03-07T16:53:47.196Z,100.00
2023-03-07T16:56:37.582Z,100.00
2023-03-07T16:59:04.674Z,100.00
2023-03-07T17:01:31.188Z,100.00
2023-03-07T17:03:57.799Z,100.00
2023-03-07T17:06:37.270Z,100.00
2023-03-07T17:09:12.621Z,100.00
2023-03-07T17:11:41.629Z,100.00
2023-03-07T17:14:08.917Z,100.00
2023-03-07T17:16:39.328Z,100.00
2023-03-07T17:19:06.786Z,100.00
2023-03-07T17:21:33.570Z,100.00
2023-03-07T17:24:00.374Z,100.00
2023-03-07T17:26:32.819Z,100.00
2023-03-07T17:29:03.610Z,100.00
2023-03-07T17:31:30.796Z,100.00
2023-03-07T17:33:57.446Z,100.00
2023-03-07T17:36:23.991Z,100.00
2023-03-07T17:38:50.498Z,100.00
2023-03-07T17:41:17.594Z,100.00
2023-03-07T17:43:44.131Z,100.00
2023-03-07T17:46:12.452Z,100.00
2023-03-07T17:48:39.306Z,100.00
2023-03-07T17:51:12.431Z,100.00
2023-03-07T17:53:39.017Z,100.00
2023-03-07T17:56:07.740Z,100.00
2023-03-07T17:58:34.291Z,100.00
2023-03-07T18:01:00.813Z,100.00
2023-03-07T18:03:27.367Z,100.00
2023-03-07T18:05:54.051Z,100.00
2023-03-07T18:08:20.551Z,100.00
2023-03-07T18:10:47.075Z,100.00
2023-03-07T18:13:18.985Z,100.00
2023-03-07T18:15:46.614Z,100.00
2023-03-07T18:18:13.333Z,100.00
2023-03-07T18:20:40.274Z,100.00
2023-03-07T18:23:07.516Z,100.00
2023-03-07T18:25:34.018Z,100.00
2023-03-07T18:28:04.389Z,100.00
2023-03-07T18:30:31.629Z,100.00
2023-03-07T18:32:58.029Z,100.00
2023-03-07T18:35:25.067Z,100.00
2023-03-07T18:37:51.639Z,100.00
2023-03-07T18:40:21.986Z,100.00
2023-03-07T18:42:48.560Z,100.00
2023-03-07T18:45:15.168Z,100.00
2023-03-07T18:47:41.644Z,100.00
2023-03-07T18:50:09.410Z,100.00
2023-03-07T18:52:35.896Z,100.00
2023-03-07T18:55:02.443Z,100.00
2023-03-07T18:57:28.936Z,100.00
2023-03-07T18:59:55.473Z,100.00
2023-03-07T19:02:21.967Z,100.00
2023-03-07T19:04:48.527Z,100.00
2023-03-07T19:07:19.277Z,100.00
2023-03-07T19:09:54.582Z,100.00
2023-03-07T19:12:23.517Z,100.00
2023-03-07T19:14:52.281Z,100.00
2023-03-07T19:17:18.943Z,100.00
2023-03-07T19:19:47.055Z,100.00
2023-03-07T19:22:13.827Z,100.00
2023-03-07T19:24:40.870Z,100.00
2023-03-07T19:27:07.500Z,100.00
2023-03-07T19:29:34.877Z,100.00
2023-03-07T19:32:01.473Z,100.00
2023-03-07T19:34:27.927Z,100.00
2023-03-07T19:36:54.677Z,100.00
2023-03-07T19:39:21.225Z,100.00
2023-03-07T19:41:50.593Z,100.00
2023-03-07T19:44:17.583Z,100.00
2023-03-07T19:46:46.429Z,100.00
2023-03-07T19:49:16.764Z,100.00
2023-03-07T19:51:43.325Z,100.00
2023-03-07T19:54:13.444Z,100.00
2023-03-07T19:56:39.939Z,100.00
2023-03-07T19:59:07.549Z,100.00
2023-03-07T20:01:34.504Z,100.00
2023-03-07T20:04:01.806Z,100.00
2023-03-07T20:06:29.985Z,100.00
2023-03-07T20:08:57.454Z,100.00
2023-03-07T20:11:31.907Z,100.00
2023-03-07T20:14:00.362Z,100.00
2023-03-07T20:16:29.203Z,100.00
2023-03-07T20:19:00.753Z,100.00
2023-03-07T20:21:28.930Z,100.00
2023-03-07T20:23:59.223Z,100.00
2023-03-07T20:26:29.812Z,100.00
2023-03-07T20:28:56.913Z,100.00
2023-03-07T20:31:24.091Z,100.00
2023-03-07T20:33:51.012Z,100.00
2023-03-07T20:36:36.274Z,100.00
2023-03-07T20:39:07.684Z,100.00
2023-03-07T20:41:34.414Z,100.00
2023-03-07T20:44:04.002Z,100.00
2023-03-07T20:46:31.236Z,100.00
2023-03-07T20:48:59.072Z,100.00
2023-03-07T20:51:28.508Z,100.00
2023-03-07T20:53:59.581Z,100.00
2023-03-07T20:56:27.886Z,100.00
2023-03-07T20:58:54.768Z,100.00
2023-03-07T21:01:22.381Z,100.00
2023-03-07T21:03:49.131Z,100.00
2023-03-07T21:06:16.421Z,100.00
2023-03-07T21:08:43.100Z,100.00
2023-03-07T21:11:15.478Z,100.00
2023-03-07T21:13:44.291Z,100.00
2023-03-07T21:16:13.841Z,100.00
2023-03-07T21:18:40.788Z,100.00
2023-03-07T21:21:13.218Z,100.00
2023-03-07T21:23:40.362Z,100.00
2023-03-07T21:26:12.424Z,100.00
2023-03-07T21:28:39.454Z,100.00
2023-03-07T21:31:27.156Z,100.00
2023-03-07T21:33:59.967Z,100.00
2023-03-07T21:36:27.260Z,100.00
2023-03-07T21:38:54.674Z,100.00
2023-03-07T21:41:27.639Z,100.00
2023-03-07T21:43:55.487Z,100.00
2023-03-07T21:46:22.952Z,100.00
2023-03-07T21:48:49.699Z,100.00
2023-03-07T21:51:16.821Z,100.00
2023-03-07T21:53:43.315Z,100.00
2023-03-07T21:56:14.129Z,100.00
2023-03-07T21:58:41.031Z,100.00
2023-03-07T22:01:13.043Z,100.00
2023-03-07T22:03:40.246Z,100.00
2023-03-07T22:06:08.291Z,100.00
2023-03-07T22:08:35.293Z,100.00
2023-03-07T22:11:03.495Z,100.00
2023-03-07T22:13:32.590Z,100.00
2023-03-07T22:16:00.530Z,100.00
2023-03-07T22:18:27.723Z,100.00
2023-03-07T22:20:55.207Z,100.00
2023-03-07T22:23:23.358Z,100.00
2023-03-07T22:25:49.925Z,100.00
2023-03-07T22:28:19.992Z,100.00
2023-03-07T22:30:47.500Z,100.00
2023-03-07T22:33:14.119Z,100.00
2023-03-07T22:35:40.959Z,100.00
2023-03-07T22:38:07.451Z,100.00
2023-03-07T22:40:34.084Z,100.00
2023-03-07T22:43:00.640Z,100.00
2023-03-07T22:45:27.142Z,100.00
2023-03-07T22:47:53.779Z,100.00
2023-03-07T22:50:20.420Z,100.00
2023-03-07T22:52:46.943Z,100.00
2023-03-07T22:55:13.461Z,100.00
2023-03-07T22:57:39.916Z,100.00
2023-03-07T23:00:07.035Z,100.00
2023-03-07T23:02:33.659Z,100.00
2023-03-07T23:05:00.182Z,100.00
2023-03-07T23:07:26.729Z,100.00
2023-03-07T23:09:53.183Z,100.00
2023-03-07T23:12:19.716Z,100.00
2023-03-07T23:14:46.274Z,100.00
2023-03-07T23:17:12.694Z,100.00
2023-03-07T23:19:39.437Z,100.00
2023-03-07T23:22:06.816Z,100.00
2023-03-07T23:24:33.403Z,100.00
2023-03-07T23:26:59.954Z,100.00
2023-03-07T23:29:26.506Z,100.00
2023-03-07T23:31:52.981Z,100.00
2023-03-07T23:34:20.637Z,100.00
2023-03-07T23:36:47.281Z,100.00
2023-03-07T23:39:15.216Z,100.00
2023-03-07T23:41:41.632Z,100.00
2023-03-07T23:44:08.172Z,100.00
2023-03-07T23:46:34.733Z,100.00
2023-03-07T23:49:01.374Z,100.00
2023-03-07T23:51:28.137Z,100.00
2023-03-07T23:53:54.684Z,100.00
2023-03-07T23:56:21.343Z,100.00
2023-03-07T23:58:52.038Z,100.00
